sensor_id;sensor_type;location;lat;lon;timestamp;P1;durP1;ratioP1;P2;durP2;ratioP2
65879;SDS011;52661;51.364;6.054;2024-02-15T00:01:03;3.65;;;1.90;;
65879;SDS011;52661;51.364;6.054;2024-02-15T00:03:29;3.35;;;1.75;;
65879;SDS011;52661;51.364;6.054;2024-02-15T00:05:56;2.70;;;1.08;;
65879;SDS011;52661;51.364;6.054;2024-02-15T00:08:22;4.35;;;1.70;;
65879;SDS011;52661;51.364;6.054;2024-02-15T00:10:47;3.93;;;1.73;;
65879;SDS011;52661;51.364;6.054;2024-02-15T00:13:13;5.05;;;1.52;;
65879;SDS011;52661;51.364;6.054;2024-02-15T00:15:39;6.85;;;1.70;;
65879;SDS011;52661;51.364;6.054;2024-02-15T00:18:04;3.58;;;1.77;;
65879;SDS011;52661;51.364;6.054;2024-02-15T00:20:30;5.65;;;1.30;;
65879;SDS011;52661;51.364;6.054;2024-02-15T00:22:58;5.70;;;1.10;;
65879;SDS011;52661;51.364;6.054;2024-02-15T00:25:24;5.20;;;1.40;;
65879;SDS011;52661;51.364;6.054;2024-02-15T00:27:50;3.72;;;1.52;;
65879;SDS011;52661;51.364;6.054;2024-02-15T00:30:16;4.55;;;1.65;;
65879;SDS011;52661;51.364;6.054;2024-02-15T00:32:41;3.67;;;1.38;;
65879;SDS011;52661;51.364;6.054;2024-02-15T00:35:07;4.25;;;1.63;;
65879;SDS011;52661;51.364;6.054;2024-02-15T00:37:34;6.90;;;1.55;;
65879;SDS011;52661;51.364;6.054;2024-02-15T00:40:00;6.47;;;1.88;;
65879;SDS011;52661;51.364;6.054;2024-02-15T00:42:25;9.13;;;1.67;;
65879;SDS011;52661;51.364;6.054;2024-02-15T00:44:50;5.07;;;1.38;;
65879;SDS011;52661;51.364;6.054;2024-02-15T00:47:16;4.22;;;1.27;;
65879;SDS011;52661;51.364;6.054;2024-02-15T00:49:44;2.85;;;1.13;;
65879;SDS011;52661;51.364;6.054;2024-02-15T00:52:10;6.40;;;1.50;;
65879;SDS011;52661;51.364;6.054;2024-02-15T00:54:35;8.10;;;1.73;;
65879;SDS011;52661;51.364;6.054;2024-02-15T00:57:01;5.40;;;1.33;;
65879;SDS011;52661;51.364;6.054;2024-02-15T00:59:26;6.22;;;2.28;;
65879;SDS011;52661;51.364;6.054;2024-02-15T01:01:51;6.40;;;1.60;;
65879;SDS011;52661;51.364;6.054;2024-02-15T01:04:18;6.30;;;2.05;;
65879;SDS011;52661;51.364;6.054;2024-02-15T01:06:43;4.75;;;1.70;;
65879;SDS011;52661;51.364;6.054;2024-02-15T01:09:09;5.93;;;1.52;;
65879;SDS011;52661;51.364;6.054;2024-02-15T01:11:34;5.00;;;1.27;;
65879;SDS011;52661;51.364;6.054;2024-02-15T01:14:01;5.60;;;1.50;;
65879;SDS011;52661;51.364;6.054;2024-02-15T01:16:27;6.65;;;1.13;;
65879;SDS011;52661;51.364;6.054;2024-02-15T01:18:52;3.60;;;1.45;;
65879;SDS011;52661;51.364;6.054;2024-02-15T01:21:18;1.60;;;0.82;;
65879;SDS011;52661;51.364;6.054;2024-02-15T01:23:44;4.30;;;1.20;;
65879;SDS011;52661;51.364;6.054;2024-02-15T01:26:11;5.13;;;1.50;;
65879;SDS011;52661;51.364;6.054;2024-02-15T01:28:38;4.72;;;1.50;;
65879;SDS011;52661;51.364;6.054;2024-02-15T01:31:04;7.78;;;1.92;;
65879;SDS011;52661;51.364;6.054;2024-02-15T01:33:29;4.73;;;1.50;;
65879;SDS011;52661;51.364;6.054;2024-02-15T01:35:56;3.55;;;1.00;;
65879;SDS011;52661;51.364;6.054;2024-02-15T01:38:22;4.80;;;1.27;;
65879;SDS011;52661;51.364;6.054;2024-02-15T01:40:47;6.37;;;1.23;;
65879;SDS011;52661;51.364;6.054;2024-02-15T01:43:13;7.32;;;1.23;;
65879;SDS011;52661;51.364;6.054;2024-02-15T01:45:39;5.72;;;1.30;;
65879;SDS011;52661;51.364;6.054;2024-02-15T01:48:05;3.63;;;1.27;;
65879;SDS011;52661;51.364;6.054;2024-02-15T01:50:31;5.40;;;1.25;;
65879;SDS011;52661;51.364;6.054;2024-02-15T01:52:59;4.25;;;1.08;;
65879;SDS011;52661;51.364;6.054;2024-02-15T01:55:26;1.67;;;0.50;;
65879;SDS011;52661;51.364;6.054;2024-02-15T01:57:51;2.95;;;1.52;;
65879;SDS011;52661;51.364;6.054;2024-02-15T02:00:18;4.97;;;1.38;;
65879;SDS011;52661;51.364;6.054;2024-02-15T02:02:44;4.25;;;1.15;;
65879;SDS011;52661;51.364;6.054;2024-02-15T02:05:10;3.85;;;0.85;;
65879;SDS011;52661;51.364;6.054;2024-02-15T02:07:35;7.28;;;1.17;;
65879;SDS011;52661;51.364;6.054;2024-02-15T02:10:02;2.35;;;0.75;;
65879;SDS011;52661;51.364;6.054;2024-02-15T02:12:28;2.45;;;1.05;;
65879;SDS011;52661;51.364;6.054;2024-02-15T02:14:54;4.00;;;0.88;;
65879;SDS011;52661;51.364;6.054;2024-02-15T02:17:19;6.75;;;1.33;;
65879;SDS011;52661;51.364;6.054;2024-02-15T02:19:46;5.53;;;0.93;;
65879;SDS011;52661;51.364;6.054;2024-02-15T02:22:13;3.10;;;0.82;;
65879;SDS011;52661;51.364;6.054;2024-02-15T02:27:23;4.53;;;0.77;;
65879;SDS011;52661;51.364;6.054;2024-02-15T02:29:52;4.43;;;1.15;;
65879;SDS011;52661;51.364;6.054;2024-02-15T02:32:17;4.93;;;1.25;;
65879;SDS011;52661;51.364;6.054;2024-02-15T02:34:43;3.23;;;1.07;;
65879;SDS011;52661;51.364;6.054;2024-02-15T02:37:09;5.15;;;0.93;;
65879;SDS011;52661;51.364;6.054;2024-02-15T02:39:35;7.28;;;1.13;;
65879;SDS011;52661;51.364;6.054;2024-02-15T02:42:01;4.95;;;1.08;;
65879;SDS011;52661;51.364;6.054;2024-02-15T02:44:27;4.38;;;0.93;;
65879;SDS011;52661;51.364;6.054;2024-02-15T02:46:52;1.93;;;0.83;;
65879;SDS011;52661;51.364;6.054;2024-02-15T02:49:17;5.53;;;1.13;;
65879;SDS011;52661;51.364;6.054;2024-02-15T02:51:43;4.27;;;1.00;;
65879;SDS011;52661;51.364;6.054;2024-02-15T02:54:08;2.67;;;0.67;;
65879;SDS011;52661;51.364;6.054;2024-02-15T02:56:33;2.23;;;0.70;;
65879;SDS011;52661;51.364;6.054;2024-02-15T02:58:59;1.93;;;0.70;;
65879;SDS011;52661;51.364;6.054;2024-02-15T03:01:24;2.47;;;0.52;;
65879;SDS011;52661;51.364;6.054;2024-02-15T03:03:53;4.43;;;1.23;;
65879;SDS011;52661;51.364;6.054;2024-02-15T03:06:21;6.68;;;1.13;;
65879;SDS011;52661;51.364;6.054;2024-02-15T03:08:49;6.07;;;1.02;;
65879;SDS011;52661;51.364;6.054;2024-02-15T03:11:19;3.95;;;1.17;;
65879;SDS011;52661;51.364;6.054;2024-02-15T03:13:44;6.07;;;1.15;;
65879;SDS011;52661;51.364;6.054;2024-02-15T03:16:10;5.33;;;1.80;;
65879;SDS011;52661;51.364;6.054;2024-02-15T03:18:35;4.77;;;1.30;;
65879;SDS011;52661;51.364;6.054;2024-02-15T03:21:00;7.57;;;1.47;;
65879;SDS011;52661;51.364;6.054;2024-02-15T03:23:26;7.35;;;1.42;;
65879;SDS011;52661;51.364;6.054;2024-02-15T03:25:51;7.05;;;1.40;;
65879;SDS011;52661;51.364;6.054;2024-02-15T03:28:18;2.25;;;0.90;;
65879;SDS011;52661;51.364;6.054;2024-02-15T03:30:46;2.95;;;1.00;;
65879;SDS011;52661;51.364;6.054;2024-02-15T03:33:11;3.83;;;0.73;;
65879;SDS011;52661;51.364;6.054;2024-02-15T03:35:38;5.35;;;0.98;;
65879;SDS011;52661;51.364;6.054;2024-02-15T03:38:04;2.65;;;1.73;;
65879;SDS011;52661;51.364;6.054;2024-02-15T03:40:29;3.58;;;0.85;;
65879;SDS011;52661;51.364;6.054;2024-02-15T03:42:55;3.35;;;1.10;;
65879;SDS011;52661;51.364;6.054;2024-02-15T03:45:21;2.42;;;1.00;;
65879;SDS011;52661;51.364;6.054;2024-02-15T03:47:53;4.50;;;1.02;;
65879;SDS011;52661;51.364;6.054;2024-02-15T03:50:19;3.17;;;0.95;;
65879;SDS011;52661;51.364;6.054;2024-02-15T03:52:46;3.80;;;0.70;;
65879;SDS011;52661;51.364;6.054;2024-02-15T03:55:12;3.45;;;0.70;;
65879;SDS011;52661;51.364;6.054;2024-02-15T03:57:40;4.60;;;0.90;;
65879;SDS011;52661;51.364;6.054;2024-02-15T04:00:06;4.82;;;1.02;;
65879;SDS011;52661;51.364;6.054;2024-02-15T04:02:33;1.55;;;0.57;;
65879;SDS011;52661;51.364;6.054;2024-02-15T04:05:00;2.58;;;0.82;;
65879;SDS011;52661;51.364;6.054;2024-02-15T04:07:26;6.30;;;1.20;;
65879;SDS011;52661;51.364;6.054;2024-02-15T04:09:51;1.45;;;0.63;;
65879;SDS011;52661;51.364;6.054;2024-02-15T04:12:17;1.80;;;0.82;;
65879;SDS011;52661;51.364;6.054;2024-02-15T04:14:43;2.85;;;0.70;;
65879;SDS011;52661;51.364;6.054;2024-02-15T04:17:10;4.70;;;0.90;;
65879;SDS011;52661;51.364;6.054;2024-02-15T04:19:35;2.40;;;0.93;;
65879;SDS011;52661;51.364;6.054;2024-02-15T04:22:02;2.30;;;0.40;;
65879;SDS011;52661;51.364;6.054;2024-02-15T04:24:32;2.20;;;0.85;;
65879;SDS011;52661;51.364;6.054;2024-02-15T04:26:58;4.53;;;0.93;;
65879;SDS011;52661;51.364;6.054;2024-02-15T04:29:24;8.43;;;0.55;;
65879;SDS011;52661;51.364;6.054;2024-02-15T04:31:49;2.53;;;0.77;;
65879;SDS011;52661;51.364;6.054;2024-02-15T04:34:15;3.63;;;0.77;;
65879;SDS011;52661;51.364;6.054;2024-02-15T04:36:43;4.70;;;0.45;;
65879;SDS011;52661;51.364;6.054;2024-02-15T04:39:14;2.97;;;0.95;;
65879;SDS011;52661;51.364;6.054;2024-02-15T04:41:48;6.07;;;0.75;;
65879;SDS011;52661;51.364;6.054;2024-02-15T04:44:14;1.42;;;0.68;;
65879;SDS011;52661;51.364;6.054;2024-02-15T04:46:41;4.22;;;0.75;;
65879;SDS011;52661;51.364;6.054;2024-02-15T04:49:08;2.75;;;0.38;;
65879;SDS011;52661;51.364;6.054;2024-02-15T04:51:33;2.85;;;0.60;;
65879;SDS011;52661;51.364;6.054;2024-02-15T04:53:58;2.23;;;0.30;;
65879;SDS011;52661;51.364;6.054;2024-02-15T04:58:52;3.30;;;0.67;;
65879;SDS011;52661;51.364;6.054;2024-02-15T05:01:17;3.90;;;0.67;;
65879;SDS011;52661;51.364;6.054;2024-02-15T05:03:45;4.30;;;0.65;;
65879;SDS011;52661;51.364;6.054;2024-02-15T05:06:11;3.03;;;0.75;;
65879;SDS011;52661;51.364;6.054;2024-02-15T05:08:39;3.58;;;0.70;;
65879;SDS011;52661;51.364;6.054;2024-02-15T05:11:13;5.65;;;1.13;;
65879;SDS011;52661;51.364;6.054;2024-02-15T05:13:47;3.58;;;0.40;;
65879;SDS011;52661;51.364;6.054;2024-02-15T05:16:15;1.70;;;0.43;;
65879;SDS011;52661;51.364;6.054;2024-02-15T05:18:41;1.50;;;0.38;;
65879;SDS011;52661;51.364;6.054;2024-02-15T05:21:06;9.63;;;0.98;;
65879;SDS011;52661;51.364;6.054;2024-02-15T05:23:35;1.63;;;0.63;;
65879;SDS011;52661;51.364;6.054;2024-02-15T05:26:05;1.30;;;0.35;;
65879;SDS011;52661;51.364;6.054;2024-02-15T05:28:31;2.30;;;0.90;;
65879;SDS011;52661;51.364;6.054;2024-02-15T05:31:19;1.58;;;0.55;;
65879;SDS011;52661;51.364;6.054;2024-02-15T05:33:46;2.92;;;0.77;;
65879;SDS011;52661;51.364;6.054;2024-02-15T05:36:16;2.10;;;0.35;;
65879;SDS011;52661;51.364;6.054;2024-02-15T05:38:45;1.80;;;0.47;;
65879;SDS011;52661;51.364;6.054;2024-02-15T05:41:12;2.80;;;0.63;;
65879;SDS011;52661;51.364;6.054;2024-02-15T05:43:40;2.03;;;0.52;;
65879;SDS011;52661;51.364;6.054;2024-02-15T05:46:09;2.92;;;0.73;;
65879;SDS011;52661;51.364;6.054;2024-02-15T05:48:35;1.52;;;0.65;;
65879;SDS011;52661;51.364;6.054;2024-02-15T05:51:04;7.20;;;0.68;;
65879;SDS011;52661;51.364;6.054;2024-02-15T05:53:30;2.33;;;0.43;;
65879;SDS011;52661;51.364;6.054;2024-02-15T05:55:56;1.73;;;0.43;;
65879;SDS011;52661;51.364;6.054;2024-02-15T05:58:24;2.88;;;0.32;;
65879;SDS011;52661;51.364;6.054;2024-02-15T06:00:50;1.58;;;0.52;;
65879;SDS011;52661;51.364;6.054;2024-02-15T06:03:16;1.60;;;0.30;;
65879;SDS011;52661;51.364;6.054;2024-02-15T06:05:42;1.83;;;0.45;;
65879;SDS011;52661;51.364;6.054;2024-02-15T06:08:08;2.28;;;0.52;;
65879;SDS011;52661;51.364;6.054;2024-02-15T06:10:34;2.17;;;0.63;;
65879;SDS011;52661;51.364;6.054;2024-02-15T06:12:59;3.25;;;0.75;;
65879;SDS011;52661;51.364;6.054;2024-02-15T06:15:25;2.90;;;0.37;;
65879;SDS011;52661;51.364;6.054;2024-02-15T06:17:51;2.10;;;1.00;;
65879;SDS011;52661;51.364;6.054;2024-02-15T06:20:17;2.47;;;0.73;;
65879;SDS011;52661;51.364;6.054;2024-02-15T06:22:46;2.72;;;0.50;;
65879;SDS011;52661;51.364;6.054;2024-02-15T06:25:11;2.67;;;0.45;;
65879;SDS011;52661;51.364;6.054;2024-02-15T06:27:38;1.58;;;0.35;;
65879;SDS011;52661;51.364;6.054;2024-02-15T06:30:08;3.58;;;0.95;;
65879;SDS011;52661;51.364;6.054;2024-02-15T06:32:52;2.58;;;0.50;;
65879;SDS011;52661;51.364;6.054;2024-02-15T06:35:37;1.55;;;0.47;;
65879;SDS011;52661;51.364;6.054;2024-02-15T06:38:21;5.63;;;0.32;;
65879;SDS011;52661;51.364;6.054;2024-02-15T06:41:05;2.45;;;0.93;;
65879;SDS011;52661;51.364;6.054;2024-02-15T06:43:30;3.10;;;0.77;;
65879;SDS011;52661;51.364;6.054;2024-02-15T06:45:56;2.90;;;0.47;;
65879;SDS011;52661;51.364;6.054;2024-02-15T06:48:21;7.40;;;0.93;;
65879;SDS011;52661;51.364;6.054;2024-02-15T06:50:48;4.30;;;0.43;;
65879;SDS011;52661;51.364;6.054;2024-02-15T06:53:14;2.47;;;0.43;;
65879;SDS011;52661;51.364;6.054;2024-02-15T06:55:39;2.63;;;0.50;;
65879;SDS011;52661;51.364;6.054;2024-02-15T06:58:05;1.73;;;0.45;;
65879;SDS011;52661;51.364;6.054;2024-02-15T07:00:30;2.47;;;0.63;;
65879;SDS011;52661;51.364;6.054;2024-02-15T07:02:56;1.10;;;0.32;;
65879;SDS011;52661;51.364;6.054;2024-02-15T07:05:21;1.63;;;0.65;;
65879;SDS011;52661;51.364;6.054;2024-02-15T07:07:48;3.33;;;0.65;;
65879;SDS011;52661;51.364;6.054;2024-02-15T07:10:14;2.85;;;0.70;;
65879;SDS011;52661;51.364;6.054;2024-02-15T07:12:41;2.40;;;0.43;;
65879;SDS011;52661;51.364;6.054;2024-02-15T07:15:09;1.00;;;0.55;;
65879;SDS011;52661;51.364;6.054;2024-02-15T07:17:34;1.40;;;0.57;;
65879;SDS011;52661;51.364;6.054;2024-02-15T07:20:02;4.50;;;0.95;;
65879;SDS011;52661;51.364;6.054;2024-02-15T07:22:30;1.75;;;0.63;;
65879;SDS011;52661;51.364;6.054;2024-02-15T07:24:56;2.50;;;0.60;;
65879;SDS011;52661;51.364;6.054;2024-02-15T07:27:22;1.13;;;0.50;;
65879;SDS011;52661;51.364;6.054;2024-02-15T07:29:50;1.85;;;0.55;;
65879;SDS011;52661;51.364;6.054;2024-02-15T07:32:15;1.60;;;0.45;;
65879;SDS011;52661;51.364;6.054;2024-02-15T07:34:42;4.78;;;0.73;;
65879;SDS011;52661;51.364;6.054;2024-02-15T07:37:08;1.55;;;0.40;;
65879;SDS011;52661;51.364;6.054;2024-02-15T07:39:34;3.63;;;0.90;;
65879;SDS011;52661;51.364;6.054;2024-02-15T07:42:01;2.50;;;0.80;;
65879;SDS011;52661;51.364;6.054;2024-02-15T07:44:29;1.73;;;0.43;;
65879;SDS011;52661;51.364;6.054;2024-02-15T07:46:57;1.52;;;0.52;;
65879;SDS011;52661;51.364;6.054;2024-02-15T07:49:25;1.77;;;0.52;;
65879;SDS011;52661;51.364;6.054;2024-02-15T07:51:51;1.55;;;0.43;;
65879;SDS011;52661;51.364;6.054;2024-02-15T07:54:18;1.30;;;0.90;;
65879;SDS011;52661;51.364;6.054;2024-02-15T07:56:46;3.95;;;0.47;;
65879;SDS011;52661;51.364;6.054;2024-02-15T07:59:15;3.85;;;0.50;;
65879;SDS011;52661;51.364;6.054;2024-02-15T08:01:46;1.38;;;0.52;;
65879;SDS011;52661;51.364;6.054;2024-02-15T08:04:14;5.70;;;0.90;;
65879;SDS011;52661;51.364;6.054;2024-02-15T08:06:40;3.70;;;0.43;;
65879;SDS011;52661;51.364;6.054;2024-02-15T08:09:06;2.95;;;0.38;;
65879;SDS011;52661;51.364;6.054;2024-02-15T08:11:32;1.27;;;0.52;;
65879;SDS011;52661;51.364;6.054;2024-02-15T08:13:57;2.42;;;0.65;;
65879;SDS011;52661;51.364;6.054;2024-02-15T08:16:24;1.27;;;0.63;;
65879;SDS011;52661;51.364;6.054;2024-02-15T08:18:53;5.65;;;0.52;;
65879;SDS011;52661;51.364;6.054;2024-02-15T08:21:26;2.28;;;0.63;;
65879;SDS011;52661;51.364;6.054;2024-02-15T08:23:57;2.78;;;0.60;;
65879;SDS011;52661;51.364;6.054;2024-02-15T08:26:23;1.63;;;0.50;;
65879;SDS011;52661;51.364;6.054;2024-02-15T08:28:49;1.77;;;0.55;;
65879;SDS011;52661;51.364;6.054;2024-02-15T08:31:14;1.07;;;0.37;;
65879;SDS011;52661;51.364;6.054;2024-02-15T08:33:44;3.10;;;0.65;;
65879;SDS011;52661;51.364;6.054;2024-02-15T08:36:10;1.42;;;0.50;;
65879;SDS011;52661;51.364;6.054;2024-02-15T08:38:36;2.10;;;0.60;;
65879;SDS011;52661;51.364;6.054;2024-02-15T08:41:02;2.22;;;0.55;;
65879;SDS011;52661;51.364;6.054;2024-02-15T08:43:29;3.03;;;0.77;;
65879;SDS011;52661;51.364;6.054;2024-02-15T08:45:57;2.92;;;0.73;;
65879;SDS011;52661;51.364;6.054;2024-02-15T08:48:23;1.48;;;0.43;;
65879;SDS011;52661;51.364;6.054;2024-02-15T08:50:49;1.35;;;0.60;;
65879;SDS011;52661;51.364;6.054;2024-02-15T08:53:14;3.55;;;0.43;;
65879;SDS011;52661;51.364;6.054;2024-02-15T08:55:40;1.17;;;0.28;;
65879;SDS011;52661;51.364;6.054;2024-02-15T08:58:05;1.45;;;0.35;;
65879;SDS011;52661;51.364;6.054;2024-02-15T09:00:31;3.47;;;0.43;;
65879;SDS011;52661;51.364;6.054;2024-02-15T09:02:56;3.77;;;0.40;;
65879;SDS011;52661;51.364;6.054;2024-02-15T09:05:22;2.05;;;0.38;;
65879;SDS011;52661;51.364;6.054;2024-02-15T09:07:47;7.22;;;0.60;;
65879;SDS011;52661;51.364;6.054;2024-02-15T09:10:15;1.48;;;0.52;;
65879;SDS011;52661;51.364;6.054;2024-02-15T09:12:44;3.30;;;0.65;;
65879;SDS011;52661;51.364;6.054;2024-02-15T09:15:12;5.05;;;0.55;;
65879;SDS011;52661;51.364;6.054;2024-02-15T09:17:37;1.15;;;0.43;;
65879;SDS011;52661;51.364;6.054;2024-02-15T09:20:06;1.63;;;0.50;;
65879;SDS011;52661;51.364;6.054;2024-02-15T09:22:47;3.00;;;0.60;;
65879;SDS011;52661;51.364;6.054;2024-02-15T09:25:13;2.40;;;0.25;;
65879;SDS011;52661;51.364;6.054;2024-02-15T09:27:39;1.52;;;0.43;;
65879;SDS011;52661;51.364;6.054;2024-02-15T09:30:05;4.10;;;0.35;;
65879;SDS011;52661;51.364;6.054;2024-02-15T09:32:35;2.95;;;0.55;;
65879;SDS011;52661;51.364;6.054;2024-02-15T09:35:04;2.30;;;0.32;;
65879;SDS011;52661;51.364;6.054;2024-02-15T09:37:33;1.33;;;0.25;;
65879;SDS011;52661;51.364;6.054;2024-02-15T09:40:08;1.27;;;0.32;;
65879;SDS011;52661;51.364;6.054;2024-02-15T09:42:35;1.15;;;0.43;;
65879;SDS011;52661;51.364;6.054;2024-02-15T09:45:04;3.55;;;1.00;;
65879;SDS011;52661;51.364;6.054;2024-02-15T09:47:34;1.67;;;0.50;;
65879;SDS011;52661;51.364;6.054;2024-02-15T09:50:05;2.58;;;0.57;;
65879;SDS011;52661;51.364;6.054;2024-02-15T09:52:31;4.80;;;0.85;;
65879;SDS011;52661;51.364;6.054;2024-02-15T09:55:00;1.95;;;0.77;;
65879;SDS011;52661;51.364;6.054;2024-02-15T09:57:28;3.47;;;0.30;;
65879;SDS011;52661;51.364;6.054;2024-02-15T09:59:54;4.13;;;0.70;;
65879;SDS011;52661;51.364;6.054;2024-02-15T10:02:19;2.88;;;0.63;;
65879;SDS011;52661;51.364;6.054;2024-02-15T10:04:46;2.92;;;0.50;;
65879;SDS011;52661;51.364;6.054;2024-02-15T10:07:12;2.05;;;0.80;;
65879;SDS011;52661;51.364;6.054;2024-02-15T10:09:38;4.43;;;0.75;;
65879;SDS011;52661;51.364;6.054;2024-02-15T10:12:07;2.70;;;0.45;;
65879;SDS011;52661;51.364;6.054;2024-02-15T10:14:34;2.42;;;0.98;;
65879;SDS011;52661;51.364;6.054;2024-02-15T10:17:05;1.33;;;0.52;;
65879;SDS011;52661;51.364;6.054;2024-02-15T10:19:36;1.02;;;0.25;;
65879;SDS011;52661;51.364;6.054;2024-02-15T10:22:08;1.00;;;0.20;;
65879;SDS011;52661;51.364;6.054;2024-02-15T10:24:35;1.08;;;0.32;;
65879;SDS011;52661;51.364;6.054;2024-02-15T10:27:02;2.50;;;0.22;;
65879;SDS011;52661;51.364;6.054;2024-02-15T10:29:35;1.70;;;0.45;;
65879;SDS011;52661;51.364;6.054;2024-02-15T10:32:02;2.00;;;0.52;;
65879;SDS011;52661;51.364;6.054;2024-02-15T10:34:28;1.50;;;0.22;;
65879;SDS011;52661;51.364;6.054;2024-02-15T10:36:55;1.58;;;0.40;;
65879;SDS011;52661;51.364;6.054;2024-02-15T10:39:36;1.38;;;0.45;;
65879;SDS011;52661;51.364;6.054;2024-02-15T10:42:01;3.47;;;0.30;;
65879;SDS011;52661;51.364;6.054;2024-02-15T10:44:30;3.33;;;0.35;;
65879;SDS011;52661;51.364;6.054;2024-02-15T10:46:59;2.08;;;0.15;;
65879;SDS011;52661;51.364;6.054;2024-02-15T10:49:31;2.13;;;0.25;;
65879;SDS011;52661;51.364;6.054;2024-02-15T10:51:57;1.95;;;0.43;;
65879;SDS011;52661;51.364;6.054;2024-02-15T10:57:05;1.25;;;0.22;;
65879;SDS011;52661;51.364;6.054;2024-02-15T10:59:34;1.98;;;0.35;;
65879;SDS011;52661;51.364;6.054;2024-02-15T11:02:11;0.95;;;0.22;;
65879;SDS011;52661;51.364;6.054;2024-02-15T11:04:50;0.95;;;0.25;;
65879;SDS011;52661;51.364;6.054;2024-02-15T11:07:21;0.43;;;0.25;;
65879;SDS011;52661;51.364;6.054;2024-02-15T11:09:48;1.83;;;0.32;;
65879;SDS011;52661;51.364;6.054;2024-02-15T11:12:14;0.77;;;0.35;;
65879;SDS011;52661;51.364;6.054;2024-02-15T11:14:42;1.48;;;0.35;;
65879;SDS011;52661;51.364;6.054;2024-02-15T11:17:09;0.90;;;0.43;;
65879;SDS011;52661;51.364;6.054;2024-02-15T11:22:09;1.50;;;0.52;;
65879;SDS011;52661;51.364;6.054;2024-02-15T11:24:37;2.70;;;0.28;;
65879;SDS011;52661;51.364;6.054;2024-02-15T11:27:10;1.27;;;0.43;;
65879;SDS011;52661;51.364;6.054;2024-02-15T11:29:51;3.72;;;0.90;;
65879;SDS011;52661;51.364;6.054;2024-02-15T11:35:09;0.73;;;0.25;;
65879;SDS011;52661;51.364;6.054;2024-02-15T11:40:20;0.88;;;0.43;;
65879;SDS011;52661;51.364;6.054;2024-02-15T11:42:55;0.82;;;0.70;;
65879;SDS011;52661;51.364;6.054;2024-02-15T11:45:25;1.50;;;0.32;;
65879;SDS011;52661;51.364;6.054;2024-02-15T11:47:58;0.57;;;0.20;;
65879;SDS011;52661;51.364;6.054;2024-02-15T11:50:24;3.05;;;0.28;;
65879;SDS011;52661;51.364;6.054;2024-02-15T11:52:52;1.00;;;0.32;;
65879;SDS011;52661;51.364;6.054;2024-02-15T11:55:30;1.13;;;0.32;;
65879;SDS011;52661;51.364;6.054;2024-02-15T11:57:58;1.42;;;0.50;;
65879;SDS011;52661;51.364;6.054;2024-02-15T12:00:42;2.53;;;0.25;;
65879;SDS011;52661;51.364;6.054;2024-02-15T12:03:26;0.77;;;0.38;;
65879;SDS011;52661;51.364;6.054;2024-02-15T12:06:10;1.48;;;0.47;;
65879;SDS011;52661;51.364;6.054;2024-02-15T12:08:54;0.98;;;0.32;;
65879;SDS011;52661;51.364;6.054;2024-02-15T12:11:39;1.17;;;0.43;;
65879;SDS011;52661;51.364;6.054;2024-02-15T12:14:24;2.03;;;0.35;;
65879;SDS011;52661;51.364;6.054;2024-02-15T12:17:12;0.73;;;0.35;;
65879;SDS011;52661;51.364;6.054;2024-02-15T12:20:00;2.58;;;0.60;;
65879;SDS011;52661;51.364;6.054;2024-02-15T12:22:44;2.22;;;0.28;;
65879;SDS011;52661;51.364;6.054;2024-02-15T12:25:15;2.47;;;0.47;;
65879;SDS011;52661;51.364;6.054;2024-02-15T12:27:41;1.17;;;0.32;;
65879;SDS011;52661;51.364;6.054;2024-02-15T12:30:12;2.85;;;0.57;;
65879;SDS011;52661;51.364;6.054;2024-02-15T12:32:50;0.80;;;0.30;;
65879;SDS011;52661;51.364;6.054;2024-02-15T12:35:20;0.60;;;0.22;;
65879;SDS011;52661;51.364;6.054;2024-02-15T12:37:47;1.25;;;0.13;;
65879;SDS011;52661;51.364;6.054;2024-02-15T12:40:17;0.55;;;0.25;;
65879;SDS011;52661;51.364;6.054;2024-02-15T12:42:44;1.23;;;0.52;;
65879;SDS011;52661;51.364;6.054;2024-02-15T12:45:18;0.90;;;0.35;;
65879;SDS011;52661;51.364;6.054;2024-02-15T12:47:49;0.68;;;0.25;;
65879;SDS011;52661;51.364;6.054;2024-02-15T12:50:15;3.65;;;0.50;;
65879;SDS011;52661;51.364;6.054;2024-02-15T12:52:45;2.22;;;0.40;;
65879;SDS011;52661;51.364;6.054;2024-02-15T12:57:41;0.80;;;0.13;;
65879;SDS011;52661;51.364;6.054;2024-02-15T13:00:13;2.13;;;0.30;;
65879;SDS011;52661;51.364;6.054;2024-02-15T13:02:42;1.40;;;0.35;;
65879;SDS011;52661;51.364;6.054;2024-02-15T13:05:08;0.90;;;0.22;;
65879;SDS011;52661;51.364;6.054;2024-02-15T13:07:35;0.65;;;0.25;;
65879;SDS011;52661;51.364;6.054;2024-02-15T13:10:01;2.60;;;0.45;;
65879;SDS011;52661;51.364;6.054;2024-02-15T13:12:28;1.50;;;0.32;;
65879;SDS011;52661;51.364;6.054;2024-02-15T13:14:54;1.92;;;0.22;;
65879;SDS011;52661;51.364;6.054;2024-02-15T13:17:19;3.33;;;0.77;;
65879;SDS011;52661;51.364;6.054;2024-02-15T13:19:48;1.45;;;0.25;;
65879;SDS011;52661;51.364;6.054;2024-02-15T13:22:14;1.35;;;0.22;;
65879;SDS011;52661;51.364;6.054;2024-02-15T13:24:41;0.80;;;0.55;;
65879;SDS011;52661;51.364;6.054;2024-02-15T13:27:07;1.00;;;0.32;;
65879;SDS011;52661;51.364;6.054;2024-02-15T13:29:37;1.30;;;0.38;;
65879;SDS011;52661;51.364;6.054;2024-02-15T13:32:03;2.92;;;0.32;;
65879;SDS011;52661;51.364;6.054;2024-02-15T13:34:28;2.55;;;0.22;;
65879;SDS011;52661;51.364;6.054;2024-02-15T13:36:53;0.77;;;0.30;;
65879;SDS011;52661;51.364;6.054;2024-02-15T13:39:20;1.00;;;0.32;;
65879;SDS011;52661;51.364;6.054;2024-02-15T13:41:46;2.05;;;0.25;;
65879;SDS011;52661;51.364;6.054;2024-02-15T13:44:12;4.28;;;0.43;;
65879;SDS011;52661;51.364;6.054;2024-02-15T13:46:39;2.03;;;0.43;;
65879;SDS011;52661;51.364;6.054;2024-02-15T13:49:05;3.65;;;0.60;;
65879;SDS011;52661;51.364;6.054;2024-02-15T13:51:30;2.92;;;0.35;;
65879;SDS011;52661;51.364;6.054;2024-02-15T13:53:56;0.65;;;0.22;;
65879;SDS011;52661;51.364;6.054;2024-02-15T13:56:21;0.98;;;0.30;;
65879;SDS011;52661;51.364;6.054;2024-02-15T13:58:47;0.50;;;0.05;;
65879;SDS011;52661;51.364;6.054;2024-02-15T14:01:12;1.15;;;0.32;;
65879;SDS011;52661;51.364;6.054;2024-02-15T14:03:39;0.55;;;0.35;;
65879;SDS011;52661;51.364;6.054;2024-02-15T14:06:05;1.45;;;0.22;;
65879;SDS011;52661;51.364;6.054;2024-02-15T14:08:30;0.98;;;0.13;;
65879;SDS011;52661;51.364;6.054;2024-02-15T14:10:55;1.23;;;0.40;;
65879;SDS011;52661;51.364;6.054;2024-02-15T14:13:21;1.23;;;0.20;;
65879;SDS011;52661;51.364;6.054;2024-02-15T14:15:47;2.78;;;0.28;;
65879;SDS011;52661;51.364;6.054;2024-02-15T14:18:13;0.90;;;0.30;;
65879;SDS011;52661;51.364;6.054;2024-02-15T14:20:39;3.03;;;0.35;;
65879;SDS011;52661;51.364;6.054;2024-02-15T14:23:07;1.95;;;0.50;;
65879;SDS011;52661;51.364;6.054;2024-02-15T14:25:38;1.33;;;0.25;;
65879;SDS011;52661;51.364;6.054;2024-02-15T14:28:04;0.60;;;0.22;;
65879;SDS011;52661;51.364;6.054;2024-02-15T14:30:33;1.27;;;0.38;;
65879;SDS011;52661;51.364;6.054;2024-02-15T14:33:17;2.95;;;0.35;;
65879;SDS011;52661;51.364;6.054;2024-02-15T14:35:44;2.03;;;0.50;;
65879;SDS011;52661;51.364;6.054;2024-02-15T14:38:10;1.90;;;0.47;;
65879;SDS011;52661;51.364;6.054;2024-02-15T14:40:38;1.20;;;0.32;;
65879;SDS011;52661;51.364;6.054;2024-02-15T14:43:09;1.95;;;0.52;;
65879;SDS011;52661;51.364;6.054;2024-02-15T14:45:39;1.08;;;0.32;;
65879;SDS011;52661;51.364;6.054;2024-02-15T14:48:08;0.90;;;0.35;;
65879;SDS011;52661;51.364;6.054;2024-02-15T14:50:37;2.92;;;0.25;;
65879;SDS011;52661;51.364;6.054;2024-02-15T14:53:06;3.53;;;0.45;;
65879;SDS011;52661;51.364;6.054;2024-02-15T14:55:33;0.98;;;0.35;;
65879;SDS011;52661;51.364;6.054;2024-02-15T14:57:59;4.28;;;0.60;;
65879;SDS011;52661;51.364;6.054;2024-02-15T15:00:24;3.20;;;0.80;;
65879;SDS011;52661;51.364;6.054;2024-02-15T15:02:51;3.30;;;1.38;;
65879;SDS011;52661;51.364;6.054;2024-02-15T15:05:18;4.93;;;0.85;;
65879;SDS011;52661;51.364;6.054;2024-02-15T15:08:01;4.07;;;1.23;;
65879;SDS011;52661;51.364;6.054;2024-02-15T15:10:46;5.90;;;1.63;;